Current Weather Conditions: station 46145

sailwx.info

Last reported at 2014-Sep-22 21:12 UTC.
Time now 2015-Mar-02 01:01 UTC

Location: N 54°24' W 132°24'.
View on Google Maps.

See reports from other nearby stations

  
Tides and Currents Weather Stations Pressure Air Temp Water Temp Dewpoint Dewpoint Depression Visibility Wind Speed Wind Dir Waves Ship Positions
date/time (UTC)wind fromknots sea level pressurealtimeterstation pressurevisibilityair tempwater tempwave heightnotes
2015-Mar-01 23:00 310 7 gusting 7 8.0 8.2 0.9
2015-Mar-01 22:00 310 5 gusting 7 7.5 8.2 0.9
2015-Mar-01 21:00 340 7 gusting 7 7.1 8.1 0.9
2015-Mar-01 20:00 010 5 gusting 5 7.3 8.0 0.9
2015-Mar-01 18:00 310 11 gusting 13 7.6 8.0 1.1
2015-Mar-01 17:00 300 13 gusting 15 7.4 8.1 1.2
2015-Mar-01 16:00 290 13 gusting 15 7.3 8.2 1.3
2015-Mar-01 15:00 280 17 gusting 21 7.2 8.2 1.3
2015-Mar-01 14:00 290 15 gusting 17 7.4 8.2 1.3
2015-Mar-01 13:00 290 15 gusting 19 7.2 8.2 1.4
2015-Mar-01 10:00 300 15 gusting 19 7.3 8.0 1.3
2015-Mar-01 09:00 300 17 gusting 21 7.4 8.0 1.4
2015-Mar-01 08:00 300 17 gusting 21 7.4 8.1 1.5
2015-Mar-01 07:00 300 19 gusting 23 7.4 8.1 1.5
2015-Mar-01 06:00 300 17 gusting 21 7.2 8.1 1.6
2015-Mar-01 05:00 300 17 gusting 21 7.1 8.0 1.6
2015-Mar-01 04:00 310 19 gusting 23 7.1 8.0 1.7
2015-Mar-01 03:00 310 19 gusting 25 7.0 8.0 1.8
2015-Mar-01 02:00 300 21 gusting 25 7.1 8.0 1.6
2015-Mar-01 01:00 310 17 gusting 21 7.2 8.1 1.4
2015-Mar-01 00:00 300 17 7.4
2015-Feb-28 22:00 300 13 gusting 15 7.6 8.0 0.9
2015-Feb-28 21:00 300 13 gusting 15 7.7 8.0 0.8
2015-Feb-28 20:00 310 9 gusting 11 7.7 8.0 0.8
2015-Feb-28 19:00 300 7 gusting 9 7.7 8.1 0.8
2015-Feb-28 18:00 340 11 gusting 13 7.9 8.1 0.8
2015-Feb-28 17:00 320 9 gusting 11 7.9 7.9 0.8
2015-Feb-28 16:00 320 11 gusting 13 8.0 8.0 0.9
2015-Feb-28 15:00 360 11 gusting 13 8.0 7.9 0.9
2015-Feb-28 14:00 7.7 7.9 0.9
2015-Feb-28 13:00 340 9 gusting 11 7.8 7.9 0.8
2015-Feb-28 12:00 330 11 gusting 15 7.8 7.9 0.9
2015-Feb-28 11:00 340 9 gusting 9 7.7 7.9 0.8
2015-Feb-28 09:00 350 9 gusting 11 8.3 8.1 0.8
2015-Feb-28 08:00 340 9 gusting 11 8.3 8.1 0.8
2015-Feb-28 07:00 330 7 gusting 9 8.3 8.1 0.7
2015-Feb-28 06:00 360 9 gusting 11 8.5 8.1 0.7
2015-Feb-28 05:00 340 9 gusting 11 8.8 8.1 0.7
2015-Feb-28 01:00 290 7 gusting 9 8.7 8.2 0.8